createdAt,value
2022-10-22T08:38:04.014Z,99.99
2022-10-22T08:39:03.824Z,99.99
2022-10-22T08:40:03.829Z,99.99
2022-10-22T08:41:03.689Z,99.99
2022-10-22T08:42:03.838Z,99.76
2022-10-22T08:43:03.854Z,98.24
2022-10-22T08:44:03.653Z,96.98
2022-10-22T08:45:03.653Z,95.97
2022-10-22T08:46:03.648Z,95.31
2022-10-22T08:47:03.666Z,95.31
2022-10-22T08:48:03.662Z,94.81
2022-10-22T08:49:03.722Z,94.46
2022-10-22T08:50:03.686Z,93.51
2022-10-22T08:51:03.690Z,92.40
2022-10-22T08:52:03.697Z,91.99
2022-10-22T08:53:03.708Z,91.54
2022-10-22T08:54:03.716Z,91.44
2022-10-22T08:55:03.541Z,90.99
2022-10-22T08:56:03.520Z,90.59
2022-10-22T08:57:03.536Z,89.98
2022-10-22T08:58:03.550Z,89.84
2022-10-22T08:59:03.515Z,89.84
2022-10-22T09:00:03.550Z,89.23
2022-10-22T09:01:03.549Z,88.79
2022-10-22T09:02:03.579Z,88.48
2022-10-22T09:03:03.569Z,88.34
2022-10-22T09:04:03.554Z,87.63
2022-10-22T09:05:03.576Z,87.34
2022-10-22T09:06:03.588Z,87.09
2022-10-22T09:07:03.418Z,86.99
2022-10-22T09:08:03.414Z,86.49
2022-10-22T09:09:03.861Z,86.35
2022-10-22T09:10:03.397Z,85.94
2022-10-22T09:11:03.407Z,86.00
2022-10-22T09:12:03.409Z,85.05
2022-10-22T09:13:03.420Z,84.15
2022-10-22T09:14:03.554Z,83.71
2022-10-22T09:15:03.435Z,82.76
2022-10-22T09:16:03.433Z,82.16
2022-10-22T09:17:03.440Z,81.62
2022-10-22T09:18:03.470Z,81.48
2022-10-22T09:19:03.271Z,80.68
2022-10-22T09:20:03.367Z,79.53
2022-10-22T09:21:03.475Z,79.23
2022-10-22T09:22:03.718Z,79.43
2022-10-22T09:23:03.279Z,78.79
2022-10-22T09:24:03.303Z,79.10
2022-10-22T09:25:03.325Z,78.94
2022-10-22T09:26:03.304Z,79.37
2022-10-22T09:27:03.290Z,78.19
2022-10-22T09:28:03.313Z,79.33
2022-10-22T09:29:03.324Z,79.06
2022-10-22T09:30:03.546Z,80.41
2022-10-22T09:31:03.645Z,80.65
2022-10-22T09:32:03.335Z,80.81
2022-10-22T09:33:04.008Z,78.73
2022-10-22T09:34:03.360Z,78.46
2022-10-22T09:35:03.563Z,78.90
2022-10-22T09:36:03.156Z,80.15
2022-10-22T09:37:03.172Z,80.15
2022-10-22T09:38:03.393Z,80.25
2022-10-22T09:39:03.426Z,80.45
2022-10-22T09:40:03.584Z,80.08
2022-10-22T09:41:03.220Z,80.73
2022-10-22T09:42:03.208Z,81.33
2022-10-22T09:43:03.022Z,81.73
2022-10-22T09:44:03.025Z,81.84
2022-10-22T09:45:03.025Z,82.14
2022-10-22T09:46:03.017Z,81.63
2022-10-22T09:47:03.037Z,81.84
2022-10-22T09:48:03.291Z,81.19
2022-10-22T09:49:03.241Z,80.89
2022-10-22T09:50:03.045Z,80.58
2022-10-22T09:51:03.102Z,81.09
2022-10-22T09:52:03.288Z,81.09
2022-10-22T09:53:03.280Z,80.69
2022-10-22T09:54:03.068Z,80.69
2022-10-22T09:55:02.907Z,81.29
2022-10-22T09:56:02.882Z,79.88
2022-10-22T09:57:02.999Z,80.08
2022-10-22T09:58:02.905Z,80.08
2022-10-22T09:59:02.896Z,80.22
2022-10-22T10:00:03.108Z,80.39
2022-10-22T10:01:02.982Z,80.39
2022-10-22T10:02:13.633Z,79.58
2022-10-22T10:03:03.983Z,79.88
2022-10-22T10:04:06.953Z,79.99
2022-10-22T10:05:03.800Z,79.94
2022-10-22T10:06:05.839Z,79.99
2022-10-22T10:07:02.848Z,80.75
2022-10-22T10:08:02.765Z,79.74
2022-10-22T10:09:02.832Z,80.05
2022-10-22T10:10:02.774Z,79.64
2022-10-22T10:11:02.969Z,79.74
2022-10-22T10:12:02.796Z,79.21
2022-10-22T10:13:02.812Z,78.03
2022-10-22T10:14:02.837Z,78.44
2022-10-22T10:15:02.799Z,79.14
2022-10-22T10:16:02.810Z,79.24
2022-10-22T10:17:03.022Z,79.85
2022-10-22T10:18:02.830Z,78.94
2022-10-22T10:19:03.050Z,79.44
2022-10-22T10:20:04.057Z,78.64
2022-10-22T10:21:02.703Z,78.54
2022-10-22T10:22:02.851Z,78.80
2022-10-22T10:23:02.653Z,78.90
2022-10-22T10:24:03.066Z,78.40
2022-10-22T10:25:02.651Z,77.59
2022-10-22T10:26:02.684Z,77.70
2022-10-22T10:27:02.883Z,78.40
2022-10-22T10:28:02.678Z,78.10
2022-10-22T10:29:02.695Z,78.40
2022-10-22T10:30:02.524Z,77.94
2022-10-22T10:31:02.708Z,78.54
2022-10-22T10:32:02.501Z,78.94
2022-10-22T10:33:02.513Z,79.35
2022-10-22T10:34:02.733Z,79.35
2022-10-22T10:35:02.722Z,78.64
2022-10-22T10:36:02.925Z,78.84
2022-10-22T10:37:02.542Z,79.24
2022-10-22T10:38:02.540Z,78.50
2022-10-22T10:39:02.546Z,77.90
2022-10-22T10:40:02.757Z,77.29
2022-10-22T10:41:02.764Z,77.39
2022-10-22T10:42:02.775Z,78.14
2022-10-22T10:43:02.401Z,77.63
2022-10-22T10:44:02.589Z,77.23
2022-10-22T10:45:02.377Z,77.13
2022-10-22T10:46:02.388Z,77.27
2022-10-22T10:47:02.388Z,77.57
2022-10-22T10:48:02.393Z,77.47
2022-10-22T10:49:02.321Z,77.57
2022-10-22T10:50:02.316Z,77.27
2022-10-22T10:51:02.333Z,77.31
2022-10-22T10:52:02.585Z,77.40
2022-10-22T10:53:02.390Z,77.61
2022-10-22T10:54:02.644Z,77.87
2022-10-22T10:55:02.851Z,76.97
2022-10-22T10:56:02.264Z,76.23
2022-10-22T10:57:02.244Z,76.12
2022-10-22T10:58:02.251Z,76.03
2022-10-22T10:59:02.338Z,76.36
2022-10-22T11:00:02.395Z,76.67
2022-10-22T11:01:02.577Z,76.97
2022-10-22T11:02:02.189Z,77.00
2022-10-22T11:03:02.307Z,77.40
2022-10-22T11:04:02.358Z,77.70
2022-10-22T11:05:02.264Z,78.01
2022-10-22T11:06:02.209Z,77.91
2022-10-22T11:07:11.171Z,78.21
2022-10-22T11:08:03.124Z,78.21
2022-10-22T11:09:02.165Z,78.11
2022-10-22T11:10:02.159Z,77.91
2022-10-22T11:11:02.211Z,78.11
2022-10-22T11:12:02.097Z,77.47
2022-10-22T11:13:02.329Z,76.63
2022-10-22T11:14:02.108Z,75.82
2022-10-22T11:15:02.233Z,76.43
2022-10-22T11:16:02.333Z,76.32
2022-10-22T11:17:02.383Z,76.63
2022-10-22T11:18:02.028Z,76.43
2022-10-22T11:19:01.995Z,76.43
2022-10-22T11:20:02.028Z,77.23
2022-10-22T11:21:02.002Z,76.83
2022-10-22T11:22:02.006Z,76.87
2022-10-22T11:23:18.984Z,77.47
2022-10-22T11:24:02.948Z,76.76
2022-10-22T11:25:02.186Z,77.27
2022-10-22T11:26:01.917Z,77.37
2022-10-22T11:27:01.975Z,77.23
2022-10-22T11:28:07.845Z,76.32
2022-10-22T11:29:02.975Z,75.72
2022-10-22T11:30:01.979Z,75.22
2022-10-22T11:31:01.874Z,75.62
2022-10-22T11:32:01.862Z,74.82
2022-10-22T11:33:01.911Z,74.92
2022-10-22T11:34:15.269Z,74.95
2022-10-22T11:35:03.189Z,75.76
2022-10-22T11:36:01.848Z,74.75
2022-10-22T11:37:01.876Z,74.75
2022-10-22T11:38:02.446Z,74.95
2022-10-22T11:39:01.805Z,75.76
2022-10-22T11:40:01.787Z,75.96
2022-10-22T11:41:01.819Z,75.35
2022-10-22T11:42:01.737Z,74.32
2022-10-22T11:43:01.827Z,74.08
2022-10-22T11:44:01.913Z,73.38
2022-10-22T11:45:01.958Z,73.18
2022-10-22T11:46:01.739Z,73.24
2022-10-22T11:47:01.769Z,73.00
2022-10-22T11:48:01.767Z,72.71
2022-10-22T11:49:01.667Z,72.90
2022-10-22T11:50:01.898Z,73.34
2022-10-22T11:51:01.780Z,72.94
2022-10-22T11:52:04.347Z,72.53
2022-10-22T11:53:02.244Z,71.53
2022-10-22T11:54:01.808Z,71.43
2022-10-22T11:55:01.608Z,71.53
2022-10-22T11:56:01.610Z,71.63
2022-10-22T11:57:01.617Z,71.03
2022-10-22T11:58:02.232Z,71.13
2022-10-22T11:59:01.627Z,71.20
2022-10-22T12:00:02.050Z,70.96
2022-10-22T12:01:01.677Z,70.86
2022-10-22T12:02:02.474Z,70.66
2022-10-22T12:03:01.668Z,70.93
2022-10-22T12:04:01.881Z,69.49
2022-10-22T12:05:01.951Z,68.99
2022-10-22T12:06:01.607Z,69.39
2022-10-22T12:07:01.582Z,68.69
2022-10-22T12:08:01.974Z,68.42
2022-10-22T12:09:01.899Z,68.85
2022-10-22T12:10:01.549Z,70.09
2022-10-22T12:11:01.628Z,70.83
2022-10-22T12:12:01.608Z,71.77
2022-10-22T12:13:01.433Z,71.26
2022-10-22T12:14:01.479Z,71.26
2022-10-22T12:15:01.853Z,70.76
2022-10-22T12:16:01.497Z,71.06
2022-10-22T12:17:01.646Z,71.06
2022-10-22T12:18:01.432Z,71.26
2022-10-22T12:19:01.522Z,71.56
2022-10-22T12:20:02.438Z,71.97
2022-10-22T12:21:01.356Z,72.27
2022-10-22T12:22:01.317Z,71.90
2022-10-22T12:23:01.334Z,72.74
2022-10-22T12:24:01.371Z,73.55
2022-10-22T12:25:01.355Z,73.55
2022-10-22T12:26:01.428Z,74.15
2022-10-22T12:27:01.384Z,74.18
2022-10-22T12:28:01.297Z,74.79
2022-10-22T12:29:01.400Z,74.42
2022-10-22T12:30:01.844Z,74.73
2022-10-22T12:31:01.379Z,74.73
2022-10-22T12:32:01.694Z,75.33
2022-10-22T12:33:01.248Z,75.67
2022-10-22T12:34:01.296Z,75.67
2022-10-22T12:35:01.370Z,76.17
2022-10-22T12:36:01.399Z,76.07
2022-10-22T12:37:01.151Z,75.96
2022-10-22T12:38:01.818Z,75.56
2022-10-22T12:39:01.248Z,76.37
2022-10-22T12:40:01.169Z,76.57
2022-10-22T12:41:01.190Z,76.57
2022-10-22T12:42:01.294Z,76.81
2022-10-22T12:43:01.569Z,76.91
2022-10-22T12:44:01.290Z,76.61
2022-10-22T12:45:01.295Z,77.11
2022-10-22T12:46:01.536Z,77.31
2022-10-22T12:47:01.172Z,77.01
2022-10-22T12:48:01.193Z,76.81
2022-10-22T12:49:01.274Z,77.11
2022-10-22T12:50:01.089Z,77.31
2022-10-22T12:51:01.385Z,77.25
2022-10-22T12:52:01.003Z,77.31
2022-10-22T12:53:01.403Z,77.31
2022-10-22T12:54:01.477Z,76.81
2022-10-22T12:55:00.984Z,77.11
2022-10-22T12:56:01.123Z,76.91
2022-10-22T12:57:01.375Z,76.91
2022-10-22T12:58:01.008Z,76.61
2022-10-22T12:59:00.995Z,76.71
2022-10-22T13:01:01.032Z,76.81
2022-10-22T13:02:01.005Z,76.87
2022-10-22T13:03:01.045Z,76.57
2022-10-22T13:04:00.925Z,76.67
2022-10-22T13:05:00.951Z,76.67
2022-10-22T13:06:00.878Z,77.14
2022-10-22T13:07:00.873Z,77.24
2022-10-22T13:08:00.894Z,76.64
2022-10-22T13:09:01.396Z,76.64
2022-10-22T13:10:01.140Z,75.63
2022-10-22T13:11:00.974Z,75.23
2022-10-22T13:12:01.165Z,75.53
2022-10-22T13:13:01.711Z,74.76
2022-10-22T13:14:00.958Z,74.55
2022-10-22T13:15:00.781Z,75.36
2022-10-22T13:16:00.780Z,75.23
2022-10-22T13:17:00.841Z,74.76
2022-10-22T13:18:01.078Z,74.46
2022-10-22T13:19:00.767Z,74.96
2022-10-22T13:20:00.778Z,74.86
2022-10-22T13:21:00.706Z,74.46
2022-10-22T13:22:01.552Z,74.26
2022-10-22T13:23:00.668Z,74.90
2022-10-22T13:24:00.896Z,75.60
2022-10-22T13:25:00.668Z,75.40
2022-10-22T13:26:01.003Z,75.70
2022-10-22T13:27:00.676Z,76.10
2022-10-22T13:28:00.693Z,76.10
2022-10-22T13:29:00.687Z,76.00
2022-10-22T13:30:01.199Z,75.60
2022-10-22T13:31:00.630Z,75.20
2022-10-22T13:32:00.677Z,75.80
2022-10-22T13:33:00.717Z,76.00
2022-10-22T13:34:02.462Z,76.14
2022-10-22T13:35:00.744Z,75.74
2022-10-22T13:36:00.530Z,76.24
2022-10-22T13:37:00.652Z,76.04
2022-10-22T13:38:00.632Z,76.14
2022-10-22T13:39:00.534Z,76.34
2022-10-22T13:40:00.581Z,76.64
2022-10-22T13:41:00.457Z,76.24
2022-10-22T13:42:00.482Z,76.34
2022-10-22T13:43:00.528Z,76.75
2022-10-22T13:44:00.465Z,76.58
2022-10-22T13:45:00.447Z,76.38
2022-10-22T13:46:00.436Z,76.44
2022-10-22T13:47:00.477Z,75.84
2022-10-22T13:48:00.454Z,76.24
2022-10-22T13:49:00.438Z,76.14
2022-10-22T13:50:00.490Z,76.14
2022-10-22T13:51:00.435Z,75.34
2022-10-22T13:52:00.438Z,75.54
2022-10-22T13:53:00.421Z,75.84
2022-10-22T13:54:00.339Z,75.74
2022-10-22T13:55:00.461Z,75.54
2022-10-22T13:56:00.353Z,75.74
2022-10-22T13:57:00.363Z,76.04
2022-10-22T13:58:00.371Z,75.84
2022-10-22T13:59:00.371Z,76.38
2022-10-22T14:00:00.373Z,76.28
2022-10-22T14:01:00.502Z,76.58
2022-10-22T14:02:00.424Z,76.88
2022-10-22T14:03:00.246Z,76.68
2022-10-22T14:04:00.307Z,76.68
2022-10-22T14:05:00.236Z,76.88
2022-10-22T14:06:00.256Z,76.88
2022-10-22T14:07:02.873Z,77.19
2022-10-22T14:08:00.261Z,77.28
2022-10-22T14:09:00.305Z,77.79
2022-10-22T14:10:00.203Z,78.19
2022-10-22T14:11:00.940Z,78.70
2022-10-22T14:12:00.214Z,79.34
2022-10-22T14:13:00.131Z,79.54
2022-10-22T14:14:00.267Z,80.08
2022-10-22T14:15:00.292Z,80.39
2022-10-22T14:16:00.129Z,80.79
2022-10-22T14:17:00.165Z,81.20
2022-10-22T14:18:00.106Z,81.74
2022-10-22T14:19:00.263Z,82.04
2022-10-22T14:20:00.209Z,81.94
2022-10-22T14:21:00.273Z,82.35
2022-10-22T14:22:00.106Z,82.55
2022-10-22T14:23:00.394Z,82.85
2022-10-22T14:24:00.020Z,83.09
2022-10-22T14:25:00.034Z,83.50
2022-10-22T14:26:00.237Z,83.90
2022-10-22T14:26:59.966Z,84.51
2022-10-22T14:28:00.012Z,85.42
2022-10-22T14:29:15.448Z,85.93
2022-10-22T14:30:01.196Z,86.43
2022-10-22T14:30:59.905Z,86.37
2022-10-22T14:31:59.938Z,86.77
2022-10-22T14:32:59.988Z,87.18
2022-10-22T14:34:00.191Z,87.58
2022-10-22T14:34:59.924Z,87.58
2022-10-22T14:36:00.206Z,87.58
2022-10-22T14:36:59.994Z,87.58
2022-10-22T14:38:00.166Z,87.68
2022-10-22T14:38:59.986Z,87.79
2022-10-22T14:40:00.192Z,87.68
2022-10-22T14:41:00.130Z,87.79
2022-10-22T14:41:59.875Z,87.68
2022-10-22T14:42:59.939Z,87.79
2022-10-22T14:44:00.055Z,87.99
2022-10-22T14:44:59.867Z,88.29
2022-10-22T14:45:59.875Z,88.43
2022-10-22T14:46:59.838Z,88.53
2022-10-22T14:47:59.903Z,88.74
2022-10-22T14:49:00.272Z,88.70
2022-10-22T14:50:00.157Z,88.49
2022-10-22T14:50:59.743Z,88.53
2022-10-22T14:51:59.727Z,88.74
2022-10-22T14:52:59.708Z,88.64
2022-10-22T14:53:59.751Z,88.74
2022-10-22T14:54:59.783Z,88.94
2022-10-22T14:55:59.824Z,88.90
2022-10-22T14:56:59.800Z,88.79
2022-10-22T14:57:59.806Z,88.64
2022-10-22T14:58:59.636Z,88.64
2022-10-22T15:00:00.086Z,88.70
2022-10-22T15:00:59.742Z,88.74
2022-10-22T15:02:00.444Z,88.84
2022-10-22T15:03:03.302Z,88.94
2022-10-22T15:03:59.894Z,88.64
2022-10-22T15:04:59.897Z,88.53
2022-10-22T15:05:59.604Z,88.64
2022-10-22T15:06:59.676Z,88.74
2022-10-22T15:07:59.563Z,88.53
2022-10-22T15:08:59.730Z,88.64
2022-10-22T15:09:59.778Z,88.53
2022-10-22T15:10:59.616Z,88.74
2022-10-22T15:11:59.531Z,88.94
2022-10-22T15:12:59.497Z,88.94
2022-10-22T15:13:59.495Z,88.84
2022-10-22T15:14:59.580Z,88.94
2022-10-22T15:15:59.440Z,88.84
2022-10-22T15:16:59.567Z,88.94
2022-10-22T15:17:59.533Z,89.14
2022-10-22T15:18:59.696Z,89.24
2022-10-22T15:19:59.483Z,89.34
2022-10-22T15:20:59.930Z,89.45
2022-10-22T15:21:59.882Z,89.54
2022-10-22T15:22:59.494Z,89.48
2022-10-22T15:23:59.409Z,89.54
2022-10-22T15:24:59.854Z,89.65
2022-10-22T15:25:59.385Z,89.65
2022-10-22T15:26:59.554Z,89.48
2022-10-22T15:28:02.035Z,89.39
2022-10-22T15:29:00.340Z,89.45
2022-10-22T15:29:59.516Z,89.34
2022-10-22T15:30:59.323Z,89.04
2022-10-22T15:32:00.772Z,88.84
2022-10-22T15:32:59.335Z,88.84
2022-10-22T15:34:01.744Z,88.84
2022-10-22T15:34:59.376Z,88.74
2022-10-22T15:35:59.534Z,88.94
2022-10-22T15:36:59.530Z,88.98
2022-10-22T15:37:59.234Z,88.98
2022-10-22T15:38:59.211Z,89.18
2022-10-22T15:39:59.221Z,89.28
2022-10-22T15:41:01.646Z,89.39
2022-10-22T15:42:00.424Z,89.48
2022-10-22T15:42:59.234Z,89.59
2022-10-22T15:43:59.337Z,89.79
2022-10-22T15:44:59.151Z,90.09
2022-10-22T15:45:59.216Z,89.79
2022-10-22T15:46:59.265Z,89.69
2022-10-22T15:47:59.105Z,89.59
2022-10-22T15:48:59.255Z,89.59
2022-10-22T15:49:59.251Z,89.34
2022-10-22T15:50:59.461Z,89.24
2022-10-22T15:51:59.256Z,89.14
2022-10-22T15:52:59.181Z,89.14
2022-10-22T15:53:59.056Z,88.94
2022-10-22T15:54:59.333Z,88.49
2022-10-22T15:55:59.195Z,88.09
2022-10-22T15:56:59.498Z,88.09
2022-10-22T15:58:01.823Z,87.99
2022-10-22T15:59:00.131Z,87.88
2022-10-22T15:59:59.518Z,87.68
2022-10-22T16:00:59.161Z,87.48
2022-10-22T16:01:58.995Z,87.48
2022-10-22T16:02:59.068Z,87.58
2022-10-22T16:03:58.953Z,87.68
2022-10-22T16:04:58.993Z,87.68
2022-10-22T16:05:58.947Z,87.79
2022-10-22T16:06:58.906Z,87.93
2022-10-22T16:07:59.109Z,88.23
2022-10-22T16:08:59.037Z,88.33
2022-10-22T16:09:58.999Z,88.33
2022-10-22T16:10:58.921Z,88.53
2022-10-22T16:11:58.844Z,88.64
2022-10-22T16:12:58.898Z,88.78
2022-10-22T16:13:59.176Z,88.88
2022-10-22T16:14:59.005Z,88.98
2022-10-22T16:15:58.807Z,89.08
2022-10-22T16:16:58.807Z,89.18
2022-10-22T16:17:58.798Z,89.28
2022-10-22T16:18:58.780Z,89.39
2022-10-22T16:19:58.827Z,89.48
2022-10-22T16:20:58.811Z,89.59
2022-10-22T16:21:58.818Z,89.59
2022-10-22T16:22:59.107Z,89.69
2022-10-22T16:24:03.803Z,89.69
2022-10-22T16:24:59.900Z,89.73
2022-10-22T16:25:58.863Z,89.83
2022-10-22T16:26:58.754Z,89.94
2022-10-22T16:27:58.670Z,90.03
2022-10-22T16:28:58.711Z,90.14
2022-10-22T16:29:58.658Z,90.24
2022-10-22T16:30:59.101Z,90.24
2022-10-22T16:31:59.103Z,90.34
2022-10-22T16:32:58.633Z,90.54
2022-10-22T16:33:58.872Z,90.54
2022-10-22T16:34:58.643Z,90.64
2022-10-22T16:35:58.815Z,90.64
2022-10-22T16:36:58.726Z,90.54
2022-10-22T16:37:58.939Z,90.64
2022-10-22T16:38:58.548Z,90.64
2022-10-22T16:39:58.593Z,90.75
2022-10-22T16:40:58.544Z,90.84
2022-10-22T16:41:58.561Z,90.89
2022-10-22T16:42:58.572Z,90.89
2022-10-22T16:43:58.497Z,90.89
2022-10-22T16:44:58.509Z,90.89
2022-10-22T16:45:58.595Z,90.99
2022-10-22T16:46:58.576Z,90.79
2022-10-22T16:47:58.634Z,90.79
2022-10-22T16:48:58.613Z,90.79
2022-10-22T16:49:58.481Z,90.79
2022-10-22T16:50:58.429Z,90.79
2022-10-22T16:51:58.436Z,90.79
2022-10-22T16:52:58.448Z,90.69
2022-10-22T16:53:58.464Z,90.69
2022-10-22T16:54:58.420Z,90.79
2022-10-22T16:55:58.418Z,90.93
2022-10-22T16:56:58.418Z,91.03
2022-10-22T16:57:58.402Z,91.13
2022-10-22T16:58:58.444Z,91.24
2022-10-22T16:59:58.421Z,91.34
2022-10-22T17:00:58.427Z,91.44
2022-10-22T17:01:58.491Z,91.54
2022-10-22T17:02:58.411Z,91.64
2022-10-22T17:03:58.289Z,91.68
2022-10-22T17:04:58.406Z,91.68
2022-10-22T17:05:58.443Z,91.78
2022-10-22T17:06:58.501Z,91.78
2022-10-22T17:07:58.250Z,91.78
2022-10-22T17:08:58.653Z,91.89
2022-10-22T17:09:58.302Z,91.78
2022-10-22T17:10:58.283Z,91.89
2022-10-22T17:11:58.329Z,91.78
2022-10-22T17:12:58.511Z,91.78
2022-10-22T17:13:58.739Z,91.89
2022-10-22T17:14:58.509Z,91.93
2022-10-22T17:15:58.161Z,91.93
2022-10-22T17:16:58.210Z,91.83
2022-10-22T17:17:58.194Z,91.73
2022-10-22T17:18:58.201Z,91.73
2022-10-22T17:19:58.264Z,91.63
2022-10-22T17:20:58.111Z,91.52
2022-10-22T17:21:58.093Z,91.52
2022-10-22T17:22:58.221Z,91.42
2022-10-22T17:23:58.194Z,91.42
2022-10-22T17:24:58.249Z,91.42
2022-10-22T17:25:58.080Z,91.42
2022-10-22T17:26:58.180Z,91.42
2022-10-22T17:27:58.232Z,91.42
2022-10-22T17:28:58.362Z,91.32
2022-10-22T17:29:58.387Z,91.36
2022-10-22T17:30:58.227Z,91.36
2022-10-22T17:31:58.328Z,91.47
2022-10-22T17:32:58.077Z,91.47
2022-10-22T17:33:58.079Z,91.56
2022-10-22T17:34:58.094Z,91.67
2022-10-22T17:35:58.098Z,91.77
2022-10-22T17:36:58.108Z,91.87
2022-10-22T17:37:58.035Z,91.87
2022-10-22T17:38:58.332Z,91.97
2022-10-22T17:39:58.035Z,92.12
2022-10-22T17:40:59.895Z,92.12
2022-10-22T17:41:57.977Z,92.22
2022-10-22T17:42:58.230Z,92.22
2022-10-22T17:43:58.010Z,92.22
2022-10-22T17:44:58.092Z,92.32
2022-10-22T17:45:57.871Z,92.42
2022-10-22T17:46:57.868Z,92.42
2022-10-22T17:47:57.928Z,92.42
2022-10-22T17:48:58.602Z,92.42
2022-10-22T17:49:58.051Z,92.47
2022-10-22T17:50:59.234Z,92.47
2022-10-22T17:51:57.985Z,92.47
2022-10-22T17:52:57.813Z,92.47
2022-10-22T17:53:57.926Z,92.57
2022-10-22T17:54:57.760Z,92.77
2022-10-22T17:55:58.774Z,92.87
2022-10-22T17:56:57.851Z,92.87
2022-10-22T17:57:57.760Z,92.97
2022-10-22T17:58:57.706Z,93.07
2022-10-22T17:59:57.711Z,93.28
2022-10-22T18:00:57.859Z,93.38
2022-10-22T18:02:00.097Z,93.38
2022-10-22T18:02:57.785Z,93.59
2022-10-22T18:03:57.844Z,93.59
2022-10-22T18:04:57.888Z,93.59
2022-10-22T18:05:57.679Z,93.68
2022-10-22T18:06:57.666Z,93.73
2022-10-22T18:07:57.944Z,93.83
2022-10-22T18:08:57.597Z,93.83
2022-10-22T18:09:57.856Z,93.93
2022-10-22T18:10:57.735Z,94.04
2022-10-22T18:11:57.923Z,94.04
2022-10-22T18:12:57.551Z,94.04
2022-10-22T18:13:57.777Z,94.13
2022-10-22T18:14:57.542Z,94.13
2022-10-22T18:15:58.063Z,94.24
2022-10-22T18:16:57.521Z,94.24
2022-10-22T18:17:57.523Z,94.28
2022-10-22T18:18:57.596Z,94.38
2022-10-22T18:19:57.647Z,94.38
2022-10-22T18:20:57.557Z,94.28
2022-10-22T18:21:57.461Z,94.28
2022-10-22T18:22:57.429Z,94.28
2022-10-22T18:23:58.034Z,94.18
2022-10-22T18:24:58.366Z,94.18
2022-10-22T18:25:57.391Z,94.28
2022-10-22T18:26:58.137Z,94.28
2022-10-22T18:27:57.414Z,94.38
2022-10-22T18:28:58.966Z,94.38
2022-10-22T18:29:57.456Z,94.38
2022-10-22T18:30:57.340Z,94.38
2022-10-22T18:31:57.469Z,94.48
2022-10-22T18:32:57.400Z,94.59
2022-10-22T18:33:57.403Z,94.69
2022-10-22T18:34:57.396Z,94.59
2022-10-22T18:35:57.313Z,94.59
2022-10-22T18:36:57.303Z,94.69
2022-10-22T18:37:57.313Z,94.69
2022-10-22T18:38:57.335Z,94.84
2022-10-22T18:39:57.314Z,94.84
2022-10-22T18:40:57.345Z,94.93
2022-10-22T18:41:57.323Z,95.04
2022-10-22T18:42:57.507Z,95.24
2022-10-22T18:43:57.217Z,95.45
2022-10-22T18:44:57.520Z,95.54
2022-10-22T18:45:57.529Z,95.65
2022-10-22T18:46:57.335Z,95.65
2022-10-22T18:47:57.335Z,95.75
2022-10-22T18:48:57.167Z,95.90
2022-10-22T18:49:57.410Z,96.00
2022-10-22T18:50:57.524Z,96.10
2022-10-22T18:51:57.176Z,96.20
2022-10-22T18:52:57.383Z,96.30
2022-10-22T18:54:05.793Z,96.41
2022-10-22T18:54:58.100Z,96.51
2022-10-22T18:55:57.088Z,96.61
2022-10-22T18:56:59.342Z,96.61
2022-10-22T18:57:57.091Z,96.61
2022-10-22T18:58:57.043Z,96.61
2022-10-22T18:59:59.296Z,96.61
2022-10-22T19:00:57.163Z,96.61
2022-10-22T19:01:57.027Z,96.66
2022-10-22T19:02:57.010Z,96.76
2022-10-22T19:03:57.004Z,96.76
2022-10-22T19:04:56.992Z,96.96
2022-10-22T19:05:57.525Z,97.06
2022-10-22T19:06:57.000Z,97.16
2022-10-22T19:07:56.959Z,97.16
2022-10-22T19:08:56.966Z,97.27
2022-10-22T19:09:56.931Z,97.31
2022-10-22T19:10:56.935Z,97.41
2022-10-22T19:11:56.977Z,97.62
2022-10-22T19:12:56.883Z,97.82
2022-10-22T19:13:56.890Z,97.82
2022-10-22T19:14:56.927Z,97.92
2022-10-22T19:15:56.877Z,97.92
2022-10-22T19:16:56.877Z,97.92
2022-10-22T19:17:56.844Z,97.92
2022-10-22T19:18:56.850Z,97.92
2022-10-22T19:19:56.899Z,97.82
2022-10-22T19:20:56.818Z,97.82
2022-10-22T19:21:56.791Z,97.82
2022-10-22T19:22:56.778Z,97.82
2022-10-22T19:23:56.915Z,97.82
2022-10-22T19:24:56.776Z,97.82
2022-10-22T19:25:56.799Z,97.82
2022-10-22T19:26:56.759Z,97.82
2022-10-22T19:27:56.734Z,97.82
2022-10-22T19:28:56.785Z,97.82
2022-10-22T19:29:56.717Z,97.82
2022-10-22T19:30:56.699Z,97.82
2022-10-22T19:31:56.734Z,97.72
2022-10-22T19:32:56.676Z,97.82
2022-10-22T19:33:56.673Z,97.72
2022-10-22T19:34:56.666Z,97.72
2022-10-22T19:35:56.654Z,97.72
2022-10-22T19:36:56.643Z,97.72
2022-10-22T19:37:56.629Z,97.66
2022-10-22T19:38:56.597Z,97.77
2022-10-22T19:39:56.599Z,97.77
2022-10-22T19:40:56.613Z,97.87
2022-10-22T19:41:56.574Z,97.87
2022-10-22T19:42:56.640Z,97.87
2022-10-22T19:43:56.555Z,97.97
2022-10-22T19:44:56.568Z,98.07
2022-10-22T19:45:56.542Z,98.07
2022-10-22T19:46:56.539Z,98.07
2022-10-22T19:47:56.536Z,98.07
2022-10-22T19:48:57.978Z,98.18
2022-10-22T19:49:56.493Z,98.07
2022-10-22T19:50:56.513Z,98.18
2022-10-22T19:51:56.546Z,98.18
2022-10-22T19:52:56.488Z,98.18
2022-10-22T19:53:56.468Z,98.27
2022-10-22T19:54:56.459Z,98.27
2022-10-22T19:55:56.550Z,98.32
2022-10-22T19:56:56.458Z,98.27
2022-10-22T19:57:56.416Z,98.27
2022-10-22T19:58:56.409Z,98.32
2022-10-22T19:59:56.434Z,98.32
2022-10-22T20:00:56.453Z,98.43
2022-10-22T20:01:56.378Z,98.43
2022-10-22T20:02:56.357Z,98.52
2022-10-22T20:03:56.360Z,98.52
2022-10-22T20:04:56.387Z,98.52
2022-10-22T20:05:56.341Z,98.63
2022-10-22T20:06:56.323Z,98.63
2022-10-22T20:07:56.325Z,98.63
2022-10-22T20:08:56.500Z,98.73
2022-10-22T20:09:56.285Z,98.73
2022-10-22T20:10:56.286Z,98.73
2022-10-22T20:11:56.309Z,98.73
2022-10-22T20:12:56.254Z,98.83
2022-10-22T20:13:56.247Z,98.73
2022-10-22T20:14:56.232Z,98.83
2022-10-22T20:15:56.217Z,98.88
2022-10-22T20:16:56.238Z,98.93
2022-10-22T20:17:56.218Z,98.93
2022-10-22T20:18:56.231Z,98.98
2022-10-22T20:19:56.165Z,99.04
2022-10-22T20:20:56.209Z,99.04
2022-10-22T20:21:56.225Z,98.98
2022-10-22T20:22:56.154Z,98.98
2022-10-22T20:23:56.154Z,98.98
2022-10-22T20:24:56.126Z,98.98
2022-10-22T20:25:56.124Z,99.08
2022-10-22T20:26:56.120Z,99.08
2022-10-22T20:27:56.090Z,99.08
2022-10-22T20:28:56.090Z,99.08
2022-10-22T20:29:56.188Z,99.18
2022-10-22T20:30:56.441Z,99.18
2022-10-22T20:31:56.049Z,99.18
2022-10-22T20:32:56.087Z,99.18
2022-10-22T20:33:56.032Z,99.29
2022-10-22T20:34:56.188Z,99.29
2022-10-22T20:35:56.005Z,99.29
2022-10-22T20:36:56.009Z,99.39
2022-10-22T20:37:56.002Z,99.39
2022-10-22T20:38:55.976Z,99.49
2022-10-22T20:39:56.103Z,99.49
2022-10-22T20:40:55.951Z,99.49
2022-10-22T20:41:55.936Z,99.59
2022-10-22T20:42:56.876Z,99.69
2022-10-22T20:43:55.922Z,99.69
2022-10-22T20:44:55.903Z,99.84
2022-10-22T20:45:55.901Z,99.79
2022-10-22T20:48:02.157Z,99.74
2022-10-22T20:48:56.856Z,99.84
2022-10-22T20:49:55.880Z,99.84
2022-10-22T20:50:55.854Z,99.84
2022-10-22T20:51:55.828Z,99.84
2022-10-22T20:52:55.822Z,99.95
2022-10-22T20:53:55.804Z,99.99
2022-10-22T20:54:55.801Z,99.99
2022-10-22T20:55:55.788Z,99.99
2022-10-22T20:56:55.775Z,99.99
2022-10-22T20:57:55.756Z,99.99
2022-10-22T20:58:55.746Z,99.99
2022-10-22T20:59:55.745Z,99.99
2022-10-22T21:00:55.821Z,99.99
2022-10-22T21:01:55.910Z,99.99
2022-10-22T21:02:55.698Z,99.99
2022-10-22T21:03:55.712Z,99.99
2022-10-22T21:04:55.693Z,99.99
2022-10-22T21:05:55.667Z,99.99
2022-10-22T21:06:55.663Z,99.99
2022-10-22T21:07:55.661Z,99.99
2022-10-22T21:08:55.710Z,99.99
2022-10-22T21:09:55.635Z,99.99
2022-10-22T21:10:55.632Z,99.99
2022-10-22T21:11:55.796Z,99.99
2022-10-22T21:12:55.604Z,99.99
2022-10-22T21:13:55.588Z,99.99
2022-10-22T21:14:55.582Z,99.99
2022-10-22T21:15:55.582Z,99.99
2022-10-22T21:16:55.559Z,99.99
2022-10-22T21:17:55.560Z,99.99
2022-10-22T21:18:55.538Z,99.99
2022-10-22T21:19:55.523Z,99.99
2022-10-22T21:20:55.530Z,99.99
2022-10-22T21:21:55.506Z,99.99
2022-10-22T21:22:55.504Z,99.99
2022-10-22T21:23:55.499Z,99.99
2022-10-22T21:24:55.457Z,99.99
2022-10-22T21:25:55.470Z,99.99
2022-10-22T21:26:55.463Z,99.99
2022-10-22T21:27:55.438Z,99.99
2022-10-22T21:28:55.437Z,99.99
2022-10-22T21:29:55.427Z,99.99
2022-10-22T21:30:55.420Z,99.99
2022-10-22T21:31:55.406Z,99.99